sensor_id;sensor_type;location;lat;lon;timestamp;P1;durP1;ratioP1;P2;durP2;ratioP2
22675;SDS011;12521;43.310;21.876;2022-11-13T00:04:23;41.0;;;34.0;;
22675;SDS011;12521;43.310;21.876;2022-11-13T00:09:00;41.0;;;34.0;;
22675;SDS011;12521;43.310;21.876;2022-11-13T00:13:38;34.0;;;29.0;;
22675;SDS011;12521;43.310;21.876;2022-11-13T00:18:14;34.0;;;29.0;;
22675;SDS011;12521;43.310;21.876;2022-11-13T00:22:51;28.0;;;24.0;;
22675;SDS011;12521;43.310;21.876;2022-11-13T00:27:29;28.0;;;24.0;;
22675;SDS011;12521;43.310;21.876;2022-11-13T00:32:06;26.0;;;23.0;;
22675;SDS011;12521;43.310;21.876;2022-11-13T00:36:42;26.0;;;23.0;;
22675;SDS011;12521;43.310;21.876;2022-11-13T00:41:20;25.0;;;22.0;;
22675;SDS011;12521;43.310;21.876;2022-11-13T00:45:59;25.0;;;22.0;;
22675;SDS011;12521;43.310;21.876;2022-11-13T00:50:36;31.0;;;24.0;;
22675;SDS011;12521;43.310;21.876;2022-11-13T00:55:13;31.0;;;24.0;;
22675;SDS011;12521;43.310;21.876;2022-11-13T00:59:50;37.0;;;27.0;;
22675;SDS011;12521;43.310;21.876;2022-11-13T01:04:28;37.0;;;27.0;;
22675;SDS011;12521;43.310;21.876;2022-11-13T01:09:05;37.0;;;27.0;;
22675;SDS011;12521;43.310;21.876;2022-11-13T01:13:46;32.0;;;26.0;;
22675;SDS011;12521;43.310;21.876;2022-11-13T01:18:25;32.0;;;26.0;;
22675;SDS011;12521;43.310;21.876;2022-11-13T01:23:02;28.0;;;24.0;;
22675;SDS011;12521;43.310;21.876;2022-11-13T01:27:39;28.0;;;24.0;;
22675;SDS011;12521;43.310;21.876;2022-11-13T01:32:16;32.0;;;27.0;;
22675;SDS011;12521;43.310;21.876;2022-11-13T01:36:53;32.0;;;27.0;;
22675;SDS011;12521;43.310;21.876;2022-11-13T01:41:33;37.0;;;30.0;;
22675;SDS011;12521;43.310;21.876;2022-11-13T01:46:26;37.0;;;30.0;;
22675;SDS011;12521;43.310;21.876;2022-11-13T01:51:17;34.0;;;26.0;;
22675;SDS011;12521;43.310;21.876;2022-11-13T01:56:10;34.0;;;26.0;;
22675;SDS011;12521;43.310;21.876;2022-11-13T02:00:49;32.0;;;23.0;;
22675;SDS011;12521;43.310;21.876;2022-11-13T02:05:26;32.0;;;23.0;;
22675;SDS011;12521;43.310;21.876;2022-11-13T02:10:05;26.0;;;19.0;;
22675;SDS011;12521;43.310;21.876;2022-11-13T02:14:51;26.0;;;19.0;;
22675;SDS011;12521;43.310;21.876;2022-11-13T02:19:42;20.0;;;15.0;;
22675;SDS011;12521;43.310;21.876;2022-11-13T02:24:36;20.0;;;15.0;;
22675;SDS011;12521;43.310;21.876;2022-11-13T02:29:19;19.0;;;15.0;;
22675;SDS011;12521;43.310;21.876;2022-11-13T02:33:56;19.0;;;15.0;;
22675;SDS011;12521;43.310;21.876;2022-11-13T02:38:36;19.0;;;15.0;;
22675;SDS011;12521;43.310;21.876;2022-11-13T02:43:18;18.0;;;15.0;;
22675;SDS011;12521;43.310;21.876;2022-11-13T02:47:54;18.0;;;15.0;;
22675;SDS011;12521;43.310;21.876;2022-11-13T02:52:31;19.0;;;16.0;;
22675;SDS011;12521;43.310;21.876;2022-11-13T02:57:07;19.0;;;16.0;;
22675;SDS011;12521;43.310;21.876;2022-11-13T03:01:43;20.0;;;17.0;;
22675;SDS011;12521;43.310;21.876;2022-11-13T03:06:19;20.0;;;17.0;;
22675;SDS011;12521;43.310;21.876;2022-11-13T03:10:56;20.0;;;16.0;;
22675;SDS011;12521;43.310;21.876;2022-11-13T03:15:34;20.0;;;16.0;;
22675;SDS011;12521;43.310;21.876;2022-11-13T03:20:10;20.0;;;14.0;;
22675;SDS011;12521;43.310;21.876;2022-11-13T03:24:47;20.0;;;14.0;;
22675;SDS011;12521;43.310;21.876;2022-11-13T03:29:24;20.0;;;14.0;;
22675;SDS011;12521;43.310;21.876;2022-11-13T03:34:01;20.0;;;14.0;;
22675;SDS011;12521;43.310;21.876;2022-11-13T03:38:38;20.0;;;14.0;;
22675;SDS011;12521;43.310;21.876;2022-11-13T03:43:16;21.0;;;15.0;;
22675;SDS011;12521;43.310;21.876;2022-11-13T03:47:54;21.0;;;15.0;;
22675;SDS011;12521;43.310;21.876;2022-11-13T03:52:31;23.0;;;17.0;;
22675;SDS011;12521;43.310;21.876;2022-11-13T03:57:07;23.0;;;17.0;;
22675;SDS011;12521;43.310;21.876;2022-11-13T04:01:44;25.0;;;19.0;;
22675;SDS011;12521;43.310;21.876;2022-11-13T04:06:20;25.0;;;19.0;;
22675;SDS011;12521;43.310;21.876;2022-11-13T04:11:07;24.0;;;18.0;;
22675;SDS011;12521;43.310;21.876;2022-11-13T04:15:47;24.0;;;18.0;;
22675;SDS011;12521;43.310;21.876;2022-11-13T04:20:24;22.0;;;17.0;;
22675;SDS011;12521;43.310;21.876;2022-11-13T04:25:02;22.0;;;17.0;;
22675;SDS011;12521;43.310;21.876;2022-11-13T04:29:41;24.0;;;18.0;;
22675;SDS011;12521;43.310;21.876;2022-11-13T04:34:17;24.0;;;18.0;;
22675;SDS011;12521;43.310;21.876;2022-11-13T04:38:54;24.0;;;18.0;;
22675;SDS011;12521;43.310;21.876;2022-11-13T04:43:31;26.0;;;20.0;;
22675;SDS011;12521;43.310;21.876;2022-11-13T04:48:07;26.0;;;20.0;;
22675;SDS011;12521;43.310;21.876;2022-11-13T04:52:45;32.0;;;24.0;;
22675;SDS011;12521;43.310;21.876;2022-11-13T04:57:22;32.0;;;24.0;;
22675;SDS011;12521;43.310;21.876;2022-11-13T05:02:00;37.0;;;29.0;;
22675;SDS011;12521;43.310;21.876;2022-11-13T05:06:38;37.0;;;29.0;;
22675;SDS011;12521;43.310;21.876;2022-11-13T05:11:15;32.0;;;25.0;;
22675;SDS011;12521;43.310;21.876;2022-11-13T05:16:00;32.0;;;25.0;;
22675;SDS011;12521;43.310;21.876;2022-11-13T05:20:39;26.0;;;21.0;;
22675;SDS011;12521;43.310;21.876;2022-11-13T05:25:16;26.0;;;21.0;;
22675;SDS011;12521;43.310;21.876;2022-11-13T05:29:52;28.0;;;23.0;;
22675;SDS011;12521;43.310;21.876;2022-11-13T05:34:28;28.0;;;23.0;;
22675;SDS011;12521;43.310;21.876;2022-11-13T05:39:06;28.0;;;23.0;;
22675;SDS011;12521;43.310;21.876;2022-11-13T05:43:43;29.0;;;25.0;;
22675;SDS011;12521;43.310;21.876;2022-11-13T05:48:20;29.0;;;25.0;;
22675;SDS011;12521;43.310;21.876;2022-11-13T05:52:57;29.0;;;24.0;;
22675;SDS011;12521;43.310;21.876;2022-11-13T05:57:34;29.0;;;24.0;;
22675;SDS011;12521;43.310;21.876;2022-11-13T06:02:11;29.0;;;24.0;;
22675;SDS011;12521;43.310;21.876;2022-11-13T06:06:48;29.0;;;24.0;;
22675;SDS011;12521;43.310;21.876;2022-11-13T06:11:29;32.0;;;26.0;;
22675;SDS011;12521;43.310;21.876;2022-11-13T06:16:12;32.0;;;26.0;;
22675;SDS011;12521;43.310;21.876;2022-11-13T06:21:01;35.0;;;28.0;;
22675;SDS011;12521;43.310;21.876;2022-11-13T06:25:44;35.0;;;28.0;;
22675;SDS011;12521;43.310;21.876;2022-11-13T06:30:21;38.0;;;32.0;;
22675;SDS011;12521;43.310;21.876;2022-11-13T06:34:58;38.0;;;32.0;;
22675;SDS011;12521;43.310;21.876;2022-11-13T06:39:34;40.0;;;35.0;;
22675;SDS011;12521;43.310;21.876;2022-11-13T06:44:11;40.0;;;35.0;;
22675;SDS011;12521;43.310;21.876;2022-11-13T06:48:49;40.0;;;35.0;;
22675;SDS011;12521;43.310;21.876;2022-11-13T06:53:28;36.0;;;31.0;;
22675;SDS011;12521;43.310;21.876;2022-11-13T06:58:08;36.0;;;31.0;;
22675;SDS011;12521;43.310;21.876;2022-11-13T07:02:47;32.0;;;27.0;;
22675;SDS011;12521;43.310;21.876;2022-11-13T07:07:24;32.0;;;27.0;;
22675;SDS011;12521;43.310;21.876;2022-11-13T07:12:01;31.0;;;27.0;;
22675;SDS011;12521;43.310;21.876;2022-11-13T07:16:37;31.0;;;27.0;;
22675;SDS011;12521;43.310;21.876;2022-11-13T07:21:14;30.0;;;27.0;;
22675;SDS011;12521;43.310;21.876;2022-11-13T07:25:53;30.0;;;27.0;;
22675;SDS011;12521;43.310;21.876;2022-11-13T07:30:30;27.0;;;24.0;;
22675;SDS011;12521;43.310;21.876;2022-11-13T07:35:09;27.0;;;24.0;;
22675;SDS011;12521;43.310;21.876;2022-11-13T07:39:47;24.0;;;21.0;;
22675;SDS011;12521;43.310;21.876;2022-11-13T07:44:23;24.0;;;21.0;;
22675;SDS011;12521;43.310;21.876;2022-11-13T07:49:00;24.0;;;21.0;;
22675;SDS011;12521;43.310;21.876;2022-11-13T07:53:37;30.0;;;26.0;;
22675;SDS011;12521;43.310;21.876;2022-11-13T07:58:14;30.0;;;26.0;;
22675;SDS011;12521;43.310;21.876;2022-11-13T08:02:50;37.0;;;30.0;;
22675;SDS011;12521;43.310;21.876;2022-11-13T08:07:27;37.0;;;30.0;;
22675;SDS011;12521;43.310;21.876;2022-11-13T08:12:05;34.0;;;26.0;;
22675;SDS011;12521;43.310;21.876;2022-11-13T08:16:42;34.0;;;26.0;;
22675;SDS011;12521;43.310;21.876;2022-11-13T08:21:19;32.0;;;22.0;;
22675;SDS011;12521;43.310;21.876;2022-11-13T08:25:57;32.0;;;22.0;;
22675;SDS011;12521;43.310;21.876;2022-11-13T08:30:43;27.0;;;20.0;;
22675;SDS011;12521;43.310;21.876;2022-11-13T08:35:21;27.0;;;20.0;;
22675;SDS011;12521;43.310;21.876;2022-11-13T08:39:59;22.0;;;19.0;;
22675;SDS011;12521;43.310;21.876;2022-11-13T08:44:36;22.0;;;19.0;;
22675;SDS011;12521;43.310;21.876;2022-11-13T08:49:13;22.0;;;19.0;;
22675;SDS011;12521;43.310;21.876;2022-11-13T08:53:50;22.0;;;18.0;;
22675;SDS011;12521;43.310;21.876;2022-11-13T08:58:27;22.0;;;18.0;;
22675;SDS011;12521;43.310;21.876;2022-11-13T09:03:04;21.0;;;17.0;;
22675;SDS011;12521;43.310;21.876;2022-11-13T09:07:46;21.0;;;17.0;;
22675;SDS011;12521;43.310;21.876;2022-11-13T09:12:23;23.0;;;17.0;;
22675;SDS011;12521;43.310;21.876;2022-11-13T09:17:00;23.0;;;17.0;;
22675;SDS011;12521;43.310;21.876;2022-11-13T09:21:36;25.0;;;17.0;;
22675;SDS011;12521;43.310;21.876;2022-11-13T09:26:13;25.0;;;17.0;;
22675;SDS011;12521;43.310;21.876;2022-11-13T09:30:49;26.0;;;18.0;;
22675;SDS011;12521;43.310;21.876;2022-11-13T09:35:29;26.0;;;18.0;;
22675;SDS011;12521;43.310;21.876;2022-11-13T09:40:26;28.0;;;20.0;;
22675;SDS011;12521;43.310;21.876;2022-11-13T09:45:27;28.0;;;20.0;;
22675;SDS011;12521;43.310;21.876;2022-11-13T09:50:21;26.0;;;20.0;;
22675;SDS011;12521;43.310;21.876;2022-11-13T09:55:09;26.0;;;20.0;;
22675;SDS011;12521;43.310;21.876;2022-11-13T10:00:03;25.0;;;21.0;;
22675;SDS011;12521;43.310;21.876;2022-11-13T10:05:05;25.0;;;21.0;;
22675;SDS011;12521;43.310;21.876;2022-11-13T10:10:35;24.0;;;20.0;;
22675;SDS011;12521;43.310;21.876;2022-11-13T10:15:33;24.0;;;20.0;;
22675;SDS011;12521;43.310;21.876;2022-11-13T10:20:25;22.0;;;19.0;;
22675;SDS011;12521;43.310;21.876;2022-11-13T10:25:31;22.0;;;19.0;;
22675;SDS011;12521;43.310;21.876;2022-11-13T10:30:18;26.0;;;18.0;;
22675;SDS011;12521;43.310;21.876;2022-11-13T10:35:30;26.0;;;18.0;;
22675;SDS011;12521;43.310;21.876;2022-11-13T10:40:33;30.0;;;18.0;;
22675;SDS011;12521;43.310;21.876;2022-11-13T10:45:20;30.0;;;18.0;;
22675;SDS011;12521;43.310;21.876;2022-11-13T10:50:09;25.0;;;16.0;;
22675;SDS011;12521;43.310;21.876;2022-11-13T10:55:23;25.0;;;16.0;;
22675;SDS011;12521;43.310;21.876;2022-11-13T11:00:31;20.0;;;14.0;;
22675;SDS011;12521;43.310;21.876;2022-11-13T11:05:21;20.0;;;14.0;;
22675;SDS011;12521;43.310;21.876;2022-11-13T11:10:26;22.0;;;14.0;;
22675;SDS011;12521;43.310;21.876;2022-11-13T11:15:25;22.0;;;14.0;;
22675;SDS011;12521;43.310;21.876;2022-11-13T11:20:45;24.0;;;15.0;;
22675;SDS011;12521;43.310;21.876;2022-11-13T11:25:41;24.0;;;15.0;;
22675;SDS011;12521;43.310;21.876;2022-11-13T11:30:46;30.0;;;18.0;;
22675;SDS011;12521;43.310;21.876;2022-11-13T11:35:55;30.0;;;18.0;;
22675;SDS011;12521;43.310;21.876;2022-11-13T11:41:07;35.0;;;22.0;;
22675;SDS011;12521;43.310;21.876;2022-11-13T11:45:54;35.0;;;22.0;;
22675;SDS011;12521;43.310;21.876;2022-11-13T11:50:45;33.0;;;22.0;;
22675;SDS011;12521;43.310;21.876;2022-11-13T11:56:13;33.0;;;22.0;;
22675;SDS011;12521;43.310;21.876;2022-11-13T12:01:49;31.0;;;23.0;;
22675;SDS011;12521;43.310;21.876;2022-11-13T12:09:07;31.0;;;23.0;;
22675;SDS011;12521;43.310;21.876;2022-11-13T12:14:20;31.0;;;23.0;;
22675;SDS011;12521;43.310;21.876;2022-11-13T12:19:44;31.0;;;23.0;;
22675;SDS011;12521;43.310;21.876;2022-11-13T12:25:18;31.0;;;23.0;;
22675;SDS011;12521;43.310;21.876;2022-11-13T12:30:39;31.0;;;23.0;;
22675;SDS011;12521;43.310;21.876;2022-11-13T12:35:39;31.0;;;23.0;;
22675;SDS011;12521;43.310;21.876;2022-11-13T12:40:35;31.0;;;23.0;;
22675;SDS011;12521;43.310;21.876;2022-11-13T12:45:51;31.0;;;23.0;;
22675;SDS011;12521;43.310;21.876;2022-11-13T12:50:41;28.0;;;21.0;;
22675;SDS011;12521;43.310;21.876;2022-11-13T12:55:31;28.0;;;21.0;;
22675;SDS011;12521;43.310;21.876;2022-11-13T13:00:28;24.0;;;19.0;;
22675;SDS011;12521;43.310;21.876;2022-11-13T13:05:31;24.0;;;19.0;;
22675;SDS011;12521;43.310;21.876;2022-11-13T13:11:16;30.0;;;22.0;;
22675;SDS011;12521;43.310;21.876;2022-11-13T13:16:26;30.0;;;22.0;;
22675;SDS011;12521;43.310;21.876;2022-11-13T13:21:10;35.0;;;25.0;;
22675;SDS011;12521;43.310;21.876;2022-11-13T13:26:05;35.0;;;25.0;;
22675;SDS011;12521;43.310;21.876;2022-11-13T13:31:15;42.0;;;32.0;;
22675;SDS011;12521;43.310;21.876;2022-11-13T13:36:34;42.0;;;32.0;;
22675;SDS011;12521;43.310;21.876;2022-11-13T13:41:54;50.0;;;39.0;;
22675;SDS011;12521;43.310;21.876;2022-11-13T13:47:30;50.0;;;39.0;;
22675;SDS011;12521;43.310;21.876;2022-11-13T13:52:30;51.0;;;38.0;;
22675;SDS011;12521;43.310;21.876;2022-11-13T13:57:15;51.0;;;38.0;;
22675;SDS011;12521;43.310;21.876;2022-11-13T14:01:56;52.0;;;36.0;;
22675;SDS011;12521;43.310;21.876;2022-11-13T14:06:49;52.0;;;36.0;;
22675;SDS011;12521;43.310;21.876;2022-11-13T14:11:31;52.0;;;36.0;;
22675;SDS011;12521;43.310;21.876;2022-11-13T14:16:08;52.0;;;36.0;;
22675;SDS011;12521;43.310;21.876;2022-11-13T14:20:51;51.0;;;37.0;;
22675;SDS011;12521;43.310;21.876;2022-11-13T14:25:35;51.0;;;37.0;;
22675;SDS011;12521;43.310;21.876;2022-11-13T14:30:27;45.0;;;34.0;;
22675;SDS011;12521;43.310;21.876;2022-11-13T14:35:18;45.0;;;34.0;;
22675;SDS011;12521;43.310;21.876;2022-11-13T14:40:21;39.0;;;31.0;;
22675;SDS011;12521;43.310;21.876;2022-11-13T14:45:24;39.0;;;31.0;;
22675;SDS011;12521;43.310;21.876;2022-11-13T14:50:25;39.0;;;31.0;;
22675;SDS011;12521;43.310;21.876;2022-11-13T14:55:23;39.0;;;31.0;;
22675;SDS011;12521;43.310;21.876;2022-11-13T15:00:14;39.0;;;31.0;;
22675;SDS011;12521;43.310;21.876;2022-11-13T15:05:02;39.0;;;31.0;;
22675;SDS011;12521;43.310;21.876;2022-11-13T15:09:40;39.0;;;31.0;;
22675;SDS011;12521;43.310;21.876;2022-11-13T15:14:19;48.0;;;34.0;;
22675;SDS011;12521;43.310;21.876;2022-11-13T15:19:04;48.0;;;34.0;;
22675;SDS011;12521;43.310;21.876;2022-11-13T15:23:52;56.0;;;38.0;;
22675;SDS011;12521;43.310;21.876;2022-11-13T15:28:29;56.0;;;38.0;;
22675;SDS011;12521;43.310;21.876;2022-11-13T15:33:14;84.0;;;64.0;;
22675;SDS011;12521;43.310;21.876;2022-11-13T15:37:52;84.0;;;64.0;;
22675;SDS011;12521;43.310;21.876;2022-11-13T15:42:34;113.0;;;90.0;;
22675;SDS011;12521;43.310;21.876;2022-11-13T15:47:28;113.0;;;90.0;;
22675;SDS011;12521;43.310;21.876;2022-11-13T15:52:11;96.0;;;77.0;;
22675;SDS011;12521;43.310;21.876;2022-11-13T15:56:47;96.0;;;77.0;;
22675;SDS011;12521;43.310;21.876;2022-11-13T16:01:24;80.0;;;64.0;;
22675;SDS011;12521;43.310;21.876;2022-11-13T16:06:00;80.0;;;64.0;;
22675;SDS011;12521;43.310;21.876;2022-11-13T16:10:37;80.0;;;62.0;;
22675;SDS011;12521;43.310;21.876;2022-11-13T16:15:17;80.0;;;62.0;;
22675;SDS011;12521;43.310;21.876;2022-11-13T16:19:55;80.0;;;62.0;;
22675;SDS011;12521;43.310;21.876;2022-11-13T16:24:32;81.0;;;59.0;;
22675;SDS011;12521;43.310;21.876;2022-11-13T16:29:19;81.0;;;59.0;;
22675;SDS011;12521;43.310;21.876;2022-11-13T16:33:59;74.0;;;57.0;;
22675;SDS011;12521;43.310;21.876;2022-11-13T16:38:35;74.0;;;57.0;;
22675;SDS011;12521;43.310;21.876;2022-11-13T16:43:12;67.0;;;55.0;;
22675;SDS011;12521;43.310;21.876;2022-11-13T16:47:49;67.0;;;55.0;;
22675;SDS011;12521;43.310;21.876;2022-11-13T16:52:25;80.0;;;61.0;;
22675;SDS011;12521;43.310;21.876;2022-11-13T16:57:02;80.0;;;61.0;;
22675;SDS011;12521;43.310;21.876;2022-11-13T17:01:39;94.0;;;67.0;;
22675;SDS011;12521;43.310;21.876;2022-11-13T17:06:24;94.0;;;67.0;;
22675;SDS011;12521;43.310;21.876;2022-11-13T17:11:12;110.0;;;80.0;;
22675;SDS011;12521;43.310;21.876;2022-11-13T17:15:48;110.0;;;80.0;;
22675;SDS011;12521;43.310;21.876;2022-11-13T17:20:25;127.0;;;92.0;;
22675;SDS011;12521;43.310;21.876;2022-11-13T17:25:04;127.0;;;92.0;;
22675;SDS011;12521;43.310;21.876;2022-11-13T17:29:42;127.0;;;92.0;;
22675;SDS011;12521;43.310;21.876;2022-11-13T17:34:19;119.0;;;87.0;;
22675;SDS011;12521;43.310;21.876;2022-11-13T17:38:55;119.0;;;87.0;;
22675;SDS011;12521;43.310;21.876;2022-11-13T17:43:34;111.0;;;82.0;;
22675;SDS011;12521;43.310;21.876;2022-11-13T17:48:14;111.0;;;82.0;;
22675;SDS011;12521;43.310;21.876;2022-11-13T17:52:50;126.0;;;90.0;;
22675;SDS011;12521;43.310;21.876;2022-11-13T17:57:27;126.0;;;90.0;;
22675;SDS011;12521;43.310;21.876;2022-11-13T18:02:03;141.0;;;99.0;;
22675;SDS011;12521;43.310;21.876;2022-11-13T18:06:40;141.0;;;99.0;;
22675;SDS011;12521;43.310;21.876;2022-11-13T18:11:22;132.0;;;96.0;;
22675;SDS011;12521;43.310;21.876;2022-11-13T18:16:10;132.0;;;96.0;;
22675;SDS011;12521;43.310;21.876;2022-11-13T18:20:56;123.0;;;93.0;;
22675;SDS011;12521;43.310;21.876;2022-11-13T18:25:35;123.0;;;93.0;;
22675;SDS011;12521;43.310;21.876;2022-11-13T18:30:13;123.0;;;93.0;;
22675;SDS011;12521;43.310;21.876;2022-11-13T18:34:49;132.0;;;101.0;;
22675;SDS011;12521;43.310;21.876;2022-11-13T18:39:26;132.0;;;101.0;;
22675;SDS011;12521;43.310;21.876;2022-11-13T18:44:03;141.0;;;109.0;;
22675;SDS011;12521;43.310;21.876;2022-11-13T18:48:42;141.0;;;109.0;;
22675;SDS011;12521;43.310;21.876;2022-11-13T18:53:21;141.0;;;111.0;;
22675;SDS011;12521;43.310;21.876;2022-11-13T18:57:58;141.0;;;111.0;;
22675;SDS011;12521;43.310;21.876;2022-11-13T19:02:34;141.0;;;113.0;;
22675;SDS011;12521;43.310;21.876;2022-11-13T19:07:11;141.0;;;113.0;;
22675;SDS011;12521;43.310;21.876;2022-11-13T19:11:48;134.0;;;109.0;;
22675;SDS011;12521;43.310;21.876;2022-11-13T19:16:29;134.0;;;109.0;;
22675;SDS011;12521;43.310;21.876;2022-11-13T19:21:15;128.0;;;105.0;;
22675;SDS011;12521;43.310;21.876;2022-11-13T19:25:58;128.0;;;105.0;;
22675;SDS011;12521;43.310;21.876;2022-11-13T19:30:35;132.0;;;108.0;;
22675;SDS011;12521;43.310;21.876;2022-11-13T19:35:12;132.0;;;108.0;;
22675;SDS011;12521;43.310;21.876;2022-11-13T19:39:49;132.0;;;108.0;;
22675;SDS011;12521;43.310;21.876;2022-11-13T19:44:26;137.0;;;110.0;;
22675;SDS011;12521;43.310;21.876;2022-11-13T19:49:03;137.0;;;110.0;;
22675;SDS011;12521;43.310;21.876;2022-11-13T19:53:42;139.0;;;102.0;;
22675;SDS011;12521;43.310;21.876;2022-11-13T19:58:20;139.0;;;102.0;;
22675;SDS011;12521;43.310;21.876;2022-11-13T20:02:56;141.0;;;94.0;;
22675;SDS011;12521;43.310;21.876;2022-11-13T20:07:33;141.0;;;94.0;;
22675;SDS011;12521;43.310;21.876;2022-11-13T20:12:10;120.0;;;86.0;;
22675;SDS011;12521;43.310;21.876;2022-11-13T20:16:47;120.0;;;86.0;;
22675;SDS011;12521;43.310;21.876;2022-11-13T20:21:25;98.0;;;79.0;;
22675;SDS011;12521;43.310;21.876;2022-11-13T20:26:11;98.0;;;79.0;;
22675;SDS011;12521;43.310;21.876;2022-11-13T20:30:49;98.0;;;76.0;;
22675;SDS011;12521;43.310;21.876;2022-11-13T20:35:26;98.0;;;76.0;;
22675;SDS011;12521;43.310;21.876;2022-11-13T20:40:04;98.0;;;76.0;;
22675;SDS011;12521;43.310;21.876;2022-11-13T20:44:44;99.0;;;72.0;;
22675;SDS011;12521;43.310;21.876;2022-11-13T20:49:21;99.0;;;72.0;;
22675;SDS011;12521;43.310;21.876;2022-11-13T20:53:58;92.0;;;66.0;;
22675;SDS011;12521;43.310;21.876;2022-11-13T20:58:37;92.0;;;66.0;;
22675;SDS011;12521;43.310;21.876;2022-11-13T21:03:15;85.0;;;60.0;;
22675;SDS011;12521;43.310;21.876;2022-11-13T21:07:51;85.0;;;60.0;;
22675;SDS011;12521;43.310;21.876;2022-11-13T21:12:30;82.0;;;58.0;;
22675;SDS011;12521;43.310;21.876;2022-11-13T21:17:07;82.0;;;58.0;;
22675;SDS011;12521;43.310;21.876;2022-11-13T21:21:43;79.0;;;57.0;;
22675;SDS011;12521;43.310;21.876;2022-11-13T21:26:20;79.0;;;57.0;;
22675;SDS011;12521;43.310;21.876;2022-11-13T21:31:01;74.0;;;54.0;;
22675;SDS011;12521;43.310;21.876;2022-11-13T21:35:39;74.0;;;54.0;;
22675;SDS011;12521;43.310;21.876;2022-11-13T21:40:16;74.0;;;54.0;;
22675;SDS011;12521;43.310;21.876;2022-11-13T21:44:53;69.0;;;50.0;;
22675;SDS011;12521;43.310;21.876;2022-11-13T21:49:29;69.0;;;50.0;;
22675;SDS011;12521;43.310;21.876;2022-11-13T21:54:08;70.0;;;53.0;;
22675;SDS011;12521;43.310;21.876;2022-11-13T21:58:45;70.0;;;53.0;;
22675;SDS011;12521;43.310;21.876;2022-11-13T22:03:22;70.0;;;56.0;;
22675;SDS011;12521;43.310;21.876;2022-11-13T22:08:00;70.0;;;56.0;;
22675;SDS011;12521;43.310;21.876;2022-11-13T22:12:36;76.0;;;56.0;;
22675;SDS011;12521;43.310;21.876;2022-11-13T22:17:13;76.0;;;56.0;;
22675;SDS011;12521;43.310;21.876;2022-11-13T22:21:50;83.0;;;56.0;;
22675;SDS011;12521;43.310;21.876;2022-11-13T22:26:28;83.0;;;56.0;;
22675;SDS011;12521;43.310;21.876;2022-11-13T22:31:13;94.0;;;64.0;;
22675;SDS011;12521;43.310;21.876;2022-11-13T22:35:52;94.0;;;64.0;;
22675;SDS011;12521;43.310;21.876;2022-11-13T22:40:34;105.0;;;73.0;;
22675;SDS011;12521;43.310;21.876;2022-11-13T22:45:11;105.0;;;73.0;;
22675;SDS011;12521;43.310;21.876;2022-11-13T22:49:47;105.0;;;73.0;;
22675;SDS011;12521;43.310;21.876;2022-11-13T22:54:24;92.0;;;65.0;;
22675;SDS011;12521;43.310;21.876;2022-11-13T22:59:05;92.0;;;65.0;;
22675;SDS011;12521;43.310;21.876;2022-11-13T23:03:50;80.0;;;57.0;;
22675;SDS011;12521;43.310;21.876;2022-11-13T23:08:35;80.0;;;57.0;;
22675;SDS011;12521;43.310;21.876;2022-11-13T23:13:14;75.0;;;56.0;;
22675;SDS011;12521;43.310;21.876;2022-11-13T23:17:51;75.0;;;56.0;;
22675;SDS011;12521;43.310;21.876;2022-11-13T23:22:27;70.0;;;54.0;;
22675;SDS011;12521;43.310;21.876;2022-11-13T23:27:04;70.0;;;54.0;;
22675;SDS011;12521;43.310;21.876;2022-11-13T23:31:40;69.0;;;52.0;;
22675;SDS011;12521;43.310;21.876;2022-11-13T23:36:18;69.0;;;52.0;;
22675;SDS011;12521;43.310;21.876;2022-11-13T23:40:58;68.0;;;50.0;;
22675;SDS011;12521;43.310;21.876;2022-11-13T23:45:37;68.0;;;50.0;;
22675;SDS011;12521;43.310;21.876;2022-11-13T23:50:14;68.0;;;50.0;;
22675;SDS011;12521;43.310;21.876;2022-11-13T23:54:51;72.0;;;54.0;;
22675;SDS011;12521;43.310;21.876;2022-11-13T23:59:28;72.0;;;54.0;;
